Gouverneur, NY (13642)

2:31 PM EST on December 26, 2014 (GMT -0500)
Village of Gouverneur (Barnes St.) | Change Station
CLOSE
Current Station
Personal Weather Station
Location: Gouverneur, NY
Elevation: 433 ft
Nearby Weather Stations

Elev 433 ft 44.34 °N, 75.47 °W | Updated 7 minutes ago

Overcast
Overcast
40.6 °F
Feels Like 41 °F
N
0.0
Wind Variable Wind from North

Today
High -- | Low -- °F
--% Chance of Precip.
Yesterday
High -- | Low -- °F
Precip. -- in
7:36 AM 4:28 PM
Waxing Crescent, 28% visible
Pressure 30.13 in
Visibility 10.0 miles
Clouds Overcast 2300 ft
Windchill 41 °F
Dew Point 37 °F
Humidity 88%
Rainfall 0.00 in
Snow Depth Not available.
UV 0 out of 12
Pollen .10 out of 12
Air Quality Not available.
Flu Activity Not available.
METAR KGTB 261858Z AUTO 25011KT 10SM OVC023 04/M02 A3011 RMK AO2 SLP203 T00441024

More Conditions Fewer Conditions

Pressure 30.13 in
Visibility 10.0 miles
Clouds Overcast 2300 ft
Windchill 41 °F
Dew Point 37 °F
Humidity 88%
Rainfall 0.00 in
Snow Depth Not available.
UV 0 out of 12
Pollen .10 out of 12
Air Quality Not available.
Flu Activity Not available.
METAR KGTB 261858Z AUTO 25011KT 10SM OVC023 04/M02 A3011 RMK AO2 SLP203 T00441024

More Conditions Fewer Conditions

10-Day Weather Forecast

Almanac

Astronomy

Dec. 26, 2014 Rise Set
Actual Time
Civil Twilight
Nautical Twilight
Astronomical Twilight
Moon
Length of Visible Light
Length of Day
Tomorrow will be .
, % of the Moon is Illuminated

Today's Extremes

State Highs State Lows

Community

WunderPhotos

Upload Photos

1,780,675 photos uploaded!

WunderBlogs® & News

Nearby

Air Quality

  Air Quality AQ Index Pollutant
Not available.

Snow Depth

Station Depth Elevation

Earthquake Activity

City Distance Mag. Time & Date
Minimum magnitude displayed is 2.5.

Coastal Water Temperatures

Place Temperature

Nearby Weather Stations